createdAt,value
2022-11-13T00:00:00.460Z,101656.91
2022-11-13T00:04:21.951Z,101655.72
2022-11-13T00:08:43.505Z,101643.25
2022-11-13T00:13:06.198Z,101635.72
2022-11-13T00:17:27.554Z,101641.41
2022-11-13T00:21:48.995Z,101632.88
2022-11-13T00:26:11.569Z,101635.47
2022-11-13T00:30:34.366Z,101632.91
2022-11-13T00:34:55.752Z,101635.84
2022-11-13T00:39:17.135Z,101636.31
2022-11-13T00:43:38.813Z,101626.28
2022-11-13T00:48:01.868Z,101627.66
2022-11-13T00:52:23.144Z,101617.56
2022-11-13T00:56:44.533Z,101604.78
2022-11-13T01:01:07.151Z,101581.81
2022-11-13T01:05:30.007Z,101584.06
2022-11-13T01:09:51.612Z,101584.59
2022-11-13T01:14:12.761Z,101571.03
2022-11-13T01:18:34.218Z,101576.16
2022-11-13T01:22:56.749Z,101580.75
2022-11-13T01:27:18.275Z,101578.88
2022-11-13T01:31:39.418Z,101583.66
2022-11-13T01:36:03.798Z,101579.41
2022-11-13T01:40:26.613Z,101567.63
2022-11-13T01:44:49.028Z,101559.09
2022-11-13T01:49:19.053Z,101555.25
2022-11-13T01:53:42.088Z,101551.03
2022-11-13T01:58:05.983Z,101547.41
2022-11-13T02:02:27.561Z,101538.69
2022-11-13T02:06:50.547Z,101532.00
2022-11-13T02:11:12.489Z,101529.28
2022-11-13T02:15:35.888Z,101526.22
2022-11-13T02:19:59.868Z,101527.63
2022-11-13T02:24:25.574Z,101524.09
2022-11-13T02:28:46.725Z,101515.38
2022-11-13T02:33:20.481Z,101520.50
2022-11-13T02:37:41.624Z,101526.28
2022-11-13T02:42:04.087Z,101522.03
2022-11-13T02:46:25.291Z,101522.59
2022-11-13T02:50:46.618Z,101520.59
2022-11-13T03:01:27.742Z,101515.50
2022-11-13T03:05:49.557Z,101514.47
2022-11-13T03:10:11.593Z,101515.84
2022-11-13T03:14:32.664Z,101524.56
2022-11-13T03:18:56.148Z,101520.47
2022-11-13T03:23:17.256Z,101518.59
2022-11-13T03:27:38.419Z,101518.25
2022-11-13T03:31:59.493Z,101520.16
2022-11-13T03:36:22.174Z,101524.06
2022-11-13T03:40:43.376Z,101519.31
2022-11-13T03:45:04.718Z,101507.41
2022-11-13T03:49:26.274Z,101510.47
2022-11-13T03:53:48.997Z,101504.31
2022-11-13T03:58:10.463Z,101505.34
2022-11-13T04:02:31.818Z,101498.50
2022-11-13T04:06:53.057Z,101494.06
2022-11-13T04:11:16.094Z,101500.19
2022-11-13T04:15:37.333Z,101512.44
2022-11-13T04:19:58.510Z,101518.38
2022-11-13T04:24:19.710Z,101503.88
2022-11-13T04:28:42.320Z,101508.84
2022-11-13T04:33:03.620Z,101510.00
2022-11-13T04:37:24.606Z,101513.06
2022-11-13T04:42:03.011Z,101507.53
2022-11-13T04:46:25.736Z,101500.91
2022-11-13T04:50:47.621Z,101510.00
2022-11-13T04:55:10.187Z,101507.28
2022-11-13T04:59:31.776Z,101504.63
2022-11-13T05:03:54.674Z,101501.59
2022-11-13T05:08:16.530Z,101494.81
2022-11-13T05:12:37.765Z,101490.34
2022-11-13T05:16:58.767Z,101480.81
2022-11-13T05:21:21.538Z,101479.09
2022-11-13T05:25:42.762Z,101472.78
2022-11-13T05:30:04.414Z,101469.84
2022-11-13T05:34:25.622Z,101461.47
2022-11-13T05:38:48.464Z,101453.47
2022-11-13T05:43:09.877Z,101458.84
2022-11-13T05:47:31.408Z,101456.34
2022-11-13T05:51:55.105Z,101456.41
2022-11-13T05:56:18.834Z,101451.63
2022-11-13T06:00:39.980Z,101452.78
2022-11-13T06:05:01.451Z,101452.31
2022-11-13T06:09:22.629Z,101433.44
2022-11-13T06:13:45.682Z,101428.56
2022-11-13T06:18:07.138Z,101428.00
2022-11-13T06:22:28.567Z,101420.22
2022-11-13T06:26:49.951Z,101415.28
2022-11-13T06:31:13.151Z,101413.59
2022-11-13T06:35:34.429Z,101411.78
2022-11-13T06:39:56.056Z,101402.28
2022-11-13T06:44:17.721Z,101405.78
2022-11-13T06:48:40.561Z,101398.25
2022-11-13T06:53:02.042Z,101397.97
2022-11-13T06:57:23.495Z,101395.59
2022-11-13T07:01:45.033Z,101399.47
2022-11-13T07:06:08.838Z,101395.69
2022-11-13T07:10:30.031Z,101398.81
2022-11-13T07:14:51.383Z,101402.34
2022-11-13T07:19:12.960Z,101389.50
2022-11-13T07:23:37.084Z,101391.63
2022-11-13T07:27:58.310Z,101379.69
2022-11-13T07:32:19.786Z,101354.31
2022-11-13T07:36:41.412Z,101347.69
2022-11-13T07:41:04.386Z,101342.19
2022-11-13T07:45:25.444Z,101340.59
2022-11-13T07:49:46.852Z,101329.09
2022-11-13T07:54:08.765Z,101326.56
2022-11-13T07:58:31.899Z,101314.38
2022-11-13T08:02:54.171Z,101308.47
2022-11-13T08:07:15.854Z,101309.50
2022-11-13T08:11:37.858Z,101306.75
2022-11-13T08:16:01.828Z,101298.84
2022-11-13T08:20:23.580Z,101293.56
2022-11-13T08:24:45.200Z,101283.91
2022-11-13T08:29:07.155Z,101287.81
2022-11-13T08:33:30.606Z,101288.75
2022-11-13T08:37:52.203Z,101284.56
2022-11-13T08:42:14.238Z,101282.75
2022-11-13T08:46:35.541Z,101274.25
2022-11-13T08:50:58.866Z,101273.94
2022-11-13T08:55:20.370Z,101271.19
2022-11-13T08:59:41.936Z,101255.22
2022-11-13T09:04:03.886Z,101263.34
2022-11-13T09:08:27.547Z,101261.22
2022-11-13T09:12:49.490Z,101253.72
2022-11-13T09:17:11.322Z,101251.19
2022-11-13T09:21:33.275Z,101248.31
2022-11-13T09:25:57.068Z,101241.97
2022-11-13T09:30:18.953Z,101240.19
2022-11-13T09:34:40.715Z,101240.00
2022-11-13T09:39:02.346Z,101233.13
2022-11-13T09:43:32.250Z,101237.66
2022-11-13T09:47:56.515Z,101233.13
2022-11-13T09:52:22.354Z,101246.00
2022-11-13T09:56:51.087Z,101225.44
2022-11-13T10:01:23.125Z,101223.09
2022-11-13T10:05:52.716Z,101228.09
2022-11-13T10:10:55.519Z,101222.09
2022-11-13T10:15:18.868Z,101218.94
2022-11-13T10:19:48.938Z,101220.75
2022-11-13T10:24:17.264Z,101223.25
2022-11-13T10:28:55.791Z,101217.72
2022-11-13T10:33:20.443Z,101216.84
2022-11-13T10:37:55.259Z,101214.31
2022-11-13T10:42:24.840Z,101215.59
2022-11-13T10:46:46.370Z,101211.19
2022-11-13T10:51:22.834Z,101207.31
2022-11-13T10:55:47.424Z,101210.22
2022-11-13T11:00:21.911Z,101206.34
2022-11-13T11:04:43.607Z,101201.00
2022-11-13T11:09:20.339Z,101195.59
2022-11-13T11:13:43.230Z,101177.28
2022-11-13T11:18:11.038Z,101169.88
2022-11-13T11:22:36.173Z,101165.22
2022-11-13T11:27:04.448Z,101156.97
2022-11-13T11:31:34.279Z,101160.56
2022-11-13T11:36:03.817Z,101159.47
2022-11-13T11:40:31.479Z,101164.63
2022-11-13T11:45:04.922Z,101160.78
2022-11-13T11:49:28.004Z,101154.22
2022-11-13T11:53:59.885Z,101139.78
2022-11-13T11:58:35.865Z,101139.75
2022-11-13T12:03:40.312Z,101136.72
2022-11-13T12:08:14.719Z,101135.25
2022-11-13T12:12:51.186Z,101112.47
2022-11-13T12:17:30.926Z,101112.84
2022-11-13T12:22:06.171Z,101093.81
2022-11-13T12:26:32.807Z,101084.03
2022-11-13T12:31:06.652Z,101079.09
2022-11-13T12:35:28.605Z,101072.91
2022-11-13T12:39:57.306Z,101070.97
2022-11-13T12:44:29.035Z,101053.09
2022-11-13T12:48:50.691Z,101064.34
2022-11-13T12:53:13.058Z,101068.88
2022-11-13T12:57:34.676Z,101062.66
2022-11-13T13:02:00.977Z,101051.50
2022-11-13T13:06:29.610Z,101056.13
2022-11-13T13:10:58.609Z,101050.91
2022-11-13T13:15:29.211Z,101033.66
2022-11-13T13:20:00.914Z,101022.47
2022-11-13T13:24:30.341Z,101010.81
2022-11-13T13:28:53.299Z,101000.13
2022-11-13T13:33:21.297Z,100988.72
2022-11-13T13:37:47.942Z,100985.44
2022-11-13T13:42:17.909Z,100973.91
2022-11-13T13:46:39.144Z,100960.81
2022-11-13T13:51:01.467Z,100953.38
2022-11-13T13:55:27.817Z,100953.69
2022-11-13T13:59:50.839Z,100963.03
2022-11-13T14:04:14.757Z,100944.53
2022-11-13T14:08:36.645Z,100957.25
2022-11-13T14:12:59.558Z,100961.09
2022-11-13T14:17:23.861Z,100958.63
2022-11-13T14:21:45.767Z,100954.78
2022-11-13T14:26:07.154Z,100952.19
2022-11-13T14:30:31.429Z,100948.34
2022-11-13T14:34:53.834Z,100944.81
2022-11-13T14:39:19.992Z,100947.44
2022-11-13T14:43:49.661Z,100945.38
2022-11-13T14:48:20.381Z,100931.72
2022-11-13T14:52:41.873Z,100934.09
2022-11-13T14:57:10.403Z,100926.47
2022-11-13T15:01:33.752Z,100911.81
2022-11-13T15:05:56.657Z,100920.13
2022-11-13T15:10:19.847Z,100921.63
2022-11-13T15:14:42.416Z,100903.91
2022-11-13T15:19:04.947Z,100897.22
2022-11-13T15:23:29.483Z,100885.03
2022-11-13T15:27:51.373Z,100883.53
2022-11-13T15:32:13.783Z,100880.34
2022-11-13T15:36:35.218Z,100875.75
2022-11-13T15:40:58.277Z,100877.50
2022-11-13T15:45:19.859Z,100870.00
2022-11-13T15:49:56.570Z,100864.88
2022-11-13T15:54:26.483Z,100878.22
2022-11-13T15:58:49.326Z,100872.44
2022-11-13T16:03:12.131Z,100870.25
2022-11-13T16:07:33.759Z,100866.19
2022-11-13T16:11:56.305Z,100867.59
2022-11-13T16:16:24.507Z,100863.66
2022-11-13T16:20:45.949Z,100865.09
2022-11-13T16:25:09.979Z,100858.56
2022-11-13T16:29:31.446Z,100856.56
2022-11-13T16:33:54.122Z,100846.69
2022-11-13T16:38:15.828Z,100840.63
2022-11-13T16:42:37.537Z,100843.50
2022-11-13T16:46:59.123Z,100836.34
2022-11-13T16:51:22.674Z,100847.66
2022-11-13T16:55:44.098Z,100853.44
2022-11-13T17:00:07.089Z,100843.13
2022-11-13T17:04:28.400Z,100842.22
2022-11-13T17:08:52.188Z,100843.31
2022-11-13T17:13:13.413Z,100844.00
2022-11-13T17:17:34.926Z,100833.34
2022-11-13T17:21:56.375Z,100831.53
2022-11-13T17:26:19.181Z,100840.00
2022-11-13T17:30:40.607Z,100840.88
2022-11-13T17:35:02.298Z,100833.56
2022-11-13T17:39:23.726Z,100825.94
2022-11-13T17:43:46.490Z,100825.31
2022-11-13T17:48:08.151Z,100822.84
2022-11-13T17:52:29.768Z,100819.84
2022-11-13T17:56:51.195Z,100818.91
2022-11-13T18:01:14.611Z,100810.34
2022-11-13T18:05:40.465Z,100799.91
2022-11-13T18:10:02.702Z,100798.94
2022-11-13T18:14:24.279Z,100805.56
2022-11-13T18:18:48.862Z,100797.91
2022-11-13T18:23:10.538Z,100804.75
2022-11-13T18:27:31.953Z,100796.66
2022-11-13T18:31:53.652Z,100788.97
2022-11-13T18:36:16.677Z,100803.91
2022-11-13T18:40:41.753Z,100785.25
2022-11-13T18:45:06.269Z,100785.00
2022-11-13T18:49:27.895Z,100788.69
2022-11-13T18:53:51.882Z,100791.88
2022-11-13T18:58:13.107Z,100777.41
2022-11-13T19:02:34.700Z,100780.56
2022-11-13T19:06:57.438Z,100775.31
2022-11-13T19:11:20.643Z,100766.97
2022-11-13T19:15:41.745Z,100768.38
2022-11-13T19:20:03.354Z,100772.09
2022-11-13T19:24:24.949Z,100775.63
2022-11-13T19:28:48.964Z,100769.03
2022-11-13T19:33:10.340Z,100764.31
2022-11-13T19:37:31.917Z,100771.59
2022-11-13T19:41:53.554Z,100775.94
2022-11-13T19:46:17.177Z,100767.19
2022-11-13T19:50:38.957Z,100765.59
2022-11-13T19:55:00.167Z,100764.50
2022-11-13T19:59:21.881Z,100760.66
2022-11-13T20:03:45.096Z,100754.09
2022-11-13T20:08:06.769Z,100750.59
2022-11-13T20:12:29.628Z,100751.91
2022-11-13T20:16:50.906Z,100745.69
2022-11-13T20:21:13.875Z,100751.66
2022-11-13T20:25:35.179Z,100740.78
2022-11-13T20:29:57.551Z,100735.72
2022-11-13T20:34:19.305Z,100731.00
2022-11-13T20:38:42.141Z,100730.66
2022-11-13T20:43:04.647Z,100736.09
2022-11-13T20:47:26.608Z,100723.56
2022-11-13T20:51:47.874Z,100711.22
2022-11-13T20:56:10.772Z,100704.59
2022-11-13T21:00:32.568Z,100701.53
2022-11-13T21:04:54.170Z,100707.31
2022-11-13T21:09:15.547Z,100706.63
2022-11-13T21:13:38.327Z,100701.22
2022-11-13T21:17:59.987Z,100703.59
2022-11-13T21:22:21.414Z,100696.94
2022-11-13T21:26:42.827Z,100692.72
2022-11-13T21:31:06.671Z,100684.25
2022-11-13T21:35:28.896Z,100682.22
2022-11-13T21:39:50.558Z,100679.53
2022-11-13T21:44:12.122Z,100672.06
2022-11-13T21:48:34.980Z,100670.72
2022-11-13T21:52:56.638Z,100661.78
2022-11-13T21:57:19.093Z,100657.19
2022-11-13T22:01:40.740Z,100663.28
2022-11-13T22:06:20.463Z,100660.94
2022-11-13T22:10:41.808Z,100650.78
2022-11-13T22:15:03.382Z,100655.88
2022-11-13T22:19:27.844Z,100653.84
2022-11-13T22:23:52.239Z,100653.13
2022-11-13T22:28:13.758Z,100649.91
2022-11-13T22:32:35.118Z,100638.25
2022-11-13T22:36:56.597Z,100626.53
2022-11-13T22:41:23.223Z,100619.75
2022-11-13T22:45:45.318Z,100611.50
2022-11-13T22:50:07.139Z,100614.06
2022-11-13T22:54:28.303Z,100611.03
2022-11-13T22:58:51.433Z,100606.63
2022-11-13T23:03:13.075Z,100600.59
2022-11-13T23:07:34.520Z,100588.75
2022-11-13T23:11:56.123Z,100584.97
2022-11-13T23:16:19.074Z,100585.22
2022-11-13T23:20:40.606Z,100584.72
2022-11-13T23:25:02.119Z,100583.75
2022-11-13T23:29:23.542Z,100574.31
2022-11-13T23:33:46.550Z,100564.16
2022-11-13T23:38:07.970Z,100558.75
2022-11-13T23:42:53.656Z,100555.19
2022-11-13T23:47:10.817Z,100556.34
2022-11-13T23:51:33.547Z,100544.84
2022-11-13T23:55:54.960Z,100548.09
